sensor_id;sensor_type;location;lat;lon;timestamp;temperature;humidity
3156;DHT22;1588;50.892;7.082;2023-09-19T00:01:25;15.70;99.90
3156;DHT22;1588;50.892;7.082;2023-09-19T00:06:29;15.70;99.90
3156;DHT22;1588;50.892;7.082;2023-09-19T00:11:35;15.80;99.90
3156;DHT22;1588;50.892;7.082;2023-09-19T00:16:38;15.60;99.90
3156;DHT22;1588;50.892;7.082;2023-09-19T00:21:42;15.60;99.90
3156;DHT22;1588;50.892;7.082;2023-09-19T00:26:52;15.60;99.90
3156;DHT22;1588;50.892;7.082;2023-09-19T00:31:56;15.50;99.90
3156;DHT22;1588;50.892;7.082;2023-09-19T00:37:00;15.50;99.90
3156;DHT22;1588;50.892;7.082;2023-09-19T00:42:04;15.40;99.90
3156;DHT22;1588;50.892;7.082;2023-09-19T00:47:09;15.30;99.90
3156;DHT22;1588;50.892;7.082;2023-09-19T00:52:37;15.30;99.90
3156;DHT22;1588;50.892;7.082;2023-09-19T00:57:55;15.20;99.90
3156;DHT22;1588;50.892;7.082;2023-09-19T01:02:59;15.20;99.90
3156;DHT22;1588;50.892;7.082;2023-09-19T01:08:04;15.30;99.90
3156;DHT22;1588;50.892;7.082;2023-09-19T01:13:13;15.30;99.90
3156;DHT22;1588;50.892;7.082;2023-09-19T01:18:27;15.40;99.90
3156;DHT22;1588;50.892;7.082;2023-09-19T01:23:46;15.60;99.90
3156;DHT22;1588;50.892;7.082;2023-09-19T01:29:16;15.70;99.90
3156;DHT22;1588;50.892;7.082;2023-09-19T01:34:45;15.80;99.90
3156;DHT22;1588;50.892;7.082;2023-09-19T01:39:53;15.90;99.90
3156;DHT22;1588;50.892;7.082;2023-09-19T01:45:03;16.00;99.90
3156;DHT22;1588;50.892;7.082;2023-09-19T01:50:21;16.10;99.90
3156;DHT22;1588;50.892;7.082;2023-09-19T01:55:30;16.00;99.90
3156;DHT22;1588;50.892;7.082;2023-09-19T02:00:38;16.10;99.90
3156;DHT22;1588;50.892;7.082;2023-09-19T02:05:51;16.00;99.90
3156;DHT22;1588;50.892;7.082;2023-09-19T02:10:55;16.00;99.90
3156;DHT22;1588;50.892;7.082;2023-09-19T02:15:58;15.90;99.90
3156;DHT22;1588;50.892;7.082;2023-09-19T02:21:03;15.90;99.90
3156;DHT22;1588;50.892;7.082;2023-09-19T02:26:08;15.80;99.90
3156;DHT22;1588;50.892;7.082;2023-09-19T02:31:24;15.70;99.90
3156;DHT22;1588;50.892;7.082;2023-09-19T02:36:32;15.60;99.90
3156;DHT22;1588;50.892;7.082;2023-09-19T02:41:34;15.60;99.90
3156;DHT22;1588;50.892;7.082;2023-09-19T02:46:37;15.50;99.90
3156;DHT22;1588;50.892;7.082;2023-09-19T02:51:41;15.50;99.90
3156;DHT22;1588;50.892;7.082;2023-09-19T02:56:43;15.40;99.90
3156;DHT22;1588;50.892;7.082;2023-09-19T03:01:56;15.40;99.90
3156;DHT22;1588;50.892;7.082;2023-09-19T03:07:03;15.40;99.90
3156;DHT22;1588;50.892;7.082;2023-09-19T03:12:06;15.30;99.90
3156;DHT22;1588;50.892;7.082;2023-09-19T03:17:09;15.30;99.90
3156;DHT22;1588;50.892;7.082;2023-09-19T03:22:14;15.30;99.90
3156;DHT22;1588;50.892;7.082;2023-09-19T03:27:17;15.20;99.90
3156;DHT22;1588;50.892;7.082;2023-09-19T03:32:20;15.20;99.90
3156;DHT22;1588;50.892;7.082;2023-09-19T03:37:24;15.10;99.90
3156;DHT22;1588;50.892;7.082;2023-09-19T03:42:27;15.10;99.90
3156;DHT22;1588;50.892;7.082;2023-09-19T03:47:30;15.20;99.90
3156;DHT22;1588;50.892;7.082;2023-09-19T03:52:34;15.10;99.90
3156;DHT22;1588;50.892;7.082;2023-09-19T03:57:37;15.10;99.90
3156;DHT22;1588;50.892;7.082;2023-09-19T04:02:42;15.10;99.90
3156;DHT22;1588;50.892;7.082;2023-09-19T04:07:46;15.20;99.90
3156;DHT22;1588;50.892;7.082;2023-09-19T04:12:51;15.10;99.90
3156;DHT22;1588;50.892;7.082;2023-09-19T04:17:55;15.00;99.90
3156;DHT22;1588;50.892;7.082;2023-09-19T04:22:59;14.90;99.90
3156;DHT22;1588;50.892;7.082;2023-09-19T04:28:03;14.90;99.90
3156;DHT22;1588;50.892;7.082;2023-09-19T04:33:08;14.90;99.90
3156;DHT22;1588;50.892;7.082;2023-09-19T04:38:12;14.70;99.90
3156;DHT22;1588;50.892;7.082;2023-09-19T04:43:16;14.70;99.90
3156;DHT22;1588;50.892;7.082;2023-09-19T04:48:18;14.70;99.90
3156;DHT22;1588;50.892;7.082;2023-09-19T04:53:22;14.60;99.90
3156;DHT22;1588;50.892;7.082;2023-09-19T04:58:25;14.50;99.90
3156;DHT22;1588;50.892;7.082;2023-09-19T05:03:28;14.50;99.90
3156;DHT22;1588;50.892;7.082;2023-09-19T05:08:32;14.40;99.90
3156;DHT22;1588;50.892;7.082;2023-09-19T05:13:35;14.40;99.90
3156;DHT22;1588;50.892;7.082;2023-09-19T05:18:41;14.30;99.90
3156;DHT22;1588;50.892;7.082;2023-09-19T05:23:45;14.30;99.90
3156;DHT22;1588;50.892;7.082;2023-09-19T05:28:51;14.20;99.90
3156;DHT22;1588;50.892;7.082;2023-09-19T05:33:54;14.20;99.90
3156;DHT22;1588;50.892;7.082;2023-09-19T05:38:58;14.20;99.90
3156;DHT22;1588;50.892;7.082;2023-09-19T05:44:00;14.20;99.90
3156;DHT22;1588;50.892;7.082;2023-09-19T05:49:03;14.30;99.90
3156;DHT22;1588;50.892;7.082;2023-09-19T05:54:07;14.30;99.90
3156;DHT22;1588;50.892;7.082;2023-09-19T05:59:12;14.30;99.90
3156;DHT22;1588;50.892;7.082;2023-09-19T06:04:17;14.40;99.90
3156;DHT22;1588;50.892;7.082;2023-09-19T06:09:22;14.40;99.90
3156;DHT22;1588;50.892;7.082;2023-09-19T06:14:26;14.50;99.90
3156;DHT22;1588;50.892;7.082;2023-09-19T06:19:51;14.50;99.90
3156;DHT22;1588;50.892;7.082;2023-09-19T06:25:38;14.60;99.90
3156;DHT22;1588;50.892;7.082;2023-09-19T06:30:44;14.80;99.90
3156;DHT22;1588;50.892;7.082;2023-09-19T06:36:03;14.80;99.90
3156;DHT22;1588;50.892;7.082;2023-09-19T06:41:10;15.00;99.90
3156;DHT22;1588;50.892;7.082;2023-09-19T06:46:19;15.10;99.90
3156;DHT22;1588;50.892;7.082;2023-09-19T06:51:23;15.20;99.90
3156;DHT22;1588;50.892;7.082;2023-09-19T06:56:37;15.30;99.90
3156;DHT22;1588;50.892;7.082;2023-09-19T07:01:55;15.50;99.90
3156;DHT22;1588;50.892;7.082;2023-09-19T07:07:18;15.80;99.90
3156;DHT22;1588;50.892;7.082;2023-09-19T07:12:41;16.00;99.90
3156;DHT22;1588;50.892;7.082;2023-09-19T07:17:47;16.70;99.90
3156;DHT22;1588;50.892;7.082;2023-09-19T07:22:56;17.00;99.90
3156;DHT22;1588;50.892;7.082;2023-09-19T07:28:05;17.30;99.90
3156;DHT22;1588;50.892;7.082;2023-09-19T07:33:09;17.80;99.90
3156;DHT22;1588;50.892;7.082;2023-09-19T07:38:12;18.60;99.90
3156;DHT22;1588;50.892;7.082;2023-09-19T07:43:28;18.80;99.90
3156;DHT22;1588;50.892;7.082;2023-09-19T07:48:39;19.20;99.90
3156;DHT22;1588;50.892;7.082;2023-09-19T07:53:55;19.30;99.90
3156;DHT22;1588;50.892;7.082;2023-09-19T07:59:00;19.10;99.90
3156;DHT22;1588;50.892;7.082;2023-09-19T08:04:03;20.10;99.90
3156;DHT22;1588;50.892;7.082;2023-09-19T08:09:06;21.30;99.90
3156;DHT22;1588;50.892;7.082;2023-09-19T08:14:13;21.90;99.90
3156;DHT22;1588;50.892;7.082;2023-09-19T08:19:20;21.50;99.90
3156;DHT22;1588;50.892;7.082;2023-09-19T08:24:28;21.70;99.90
3156;DHT22;1588;50.892;7.082;2023-09-19T08:29:37;22.00;99.90
3156;DHT22;1588;50.892;7.082;2023-09-19T08:34:39;22.30;99.90
3156;DHT22;1588;50.892;7.082;2023-09-19T08:39:49;22.90;99.90
3156;DHT22;1588;50.892;7.082;2023-09-19T08:44:58;23.10;99.90
3156;DHT22;1588;50.892;7.082;2023-09-19T08:50:12;22.70;99.90
3156;DHT22;1588;50.892;7.082;2023-09-19T08:55:24;22.20;99.90
3156;DHT22;1588;50.892;7.082;2023-09-19T09:00:31;22.40;99.90
3156;DHT22;1588;50.892;7.082;2023-09-19T09:05:35;22.40;99.90
3156;DHT22;1588;50.892;7.082;2023-09-19T09:10:44;22.70;99.90
3156;DHT22;1588;50.892;7.082;2023-09-19T09:15:49;23.40;99.90
3156;DHT22;1588;50.892;7.082;2023-09-19T09:20:52;23.50;99.90
3156;DHT22;1588;50.892;7.082;2023-09-19T09:25:57;23.30;99.90
3156;DHT22;1588;50.892;7.082;2023-09-19T09:31:05;22.80;99.90
3156;DHT22;1588;50.892;7.082;2023-09-19T09:36:15;22.90;99.90
3156;DHT22;1588;50.892;7.082;2023-09-19T09:41:20;22.60;99.90
3156;DHT22;1588;50.892;7.082;2023-09-19T09:46:42;23.00;99.90
3156;DHT22;1588;50.892;7.082;2023-09-19T09:52:46;22.80;99.90
3156;DHT22;1588;50.892;7.082;2023-09-19T10:03:21;22.80;99.90
3156;DHT22;1588;50.892;7.082;2023-09-19T10:08:26;22.10;99.90
3156;DHT22;1588;50.892;7.082;2023-09-19T10:13:35;21.70;99.90
3156;DHT22;1588;50.892;7.082;2023-09-19T10:18:48;21.60;99.90
3156;DHT22;1588;50.892;7.082;2023-09-19T10:24:24;22.00;99.90
3156;DHT22;1588;50.892;7.082;2023-09-19T10:29:57;22.60;99.90
3156;DHT22;1588;50.892;7.082;2023-09-19T10:36:10;22.90;99.90
3156;DHT22;1588;50.892;7.082;2023-09-19T10:41:42;22.70;99.90
3156;DHT22;1588;50.892;7.082;2023-09-19T10:47:15;22.60;99.90
3156;DHT22;1588;50.892;7.082;2023-09-19T10:52:38;22.40;99.90
3156;DHT22;1588;50.892;7.082;2023-09-19T10:57:48;22.20;99.90
3156;DHT22;1588;50.892;7.082;2023-09-19T11:03:21;22.00;99.90
3156;DHT22;1588;50.892;7.082;2023-09-19T11:09:05;22.10;99.90
3156;DHT22;1588;50.892;7.082;2023-09-19T11:14:41;21.90;99.90
3156;DHT22;1588;50.892;7.082;2023-09-19T11:20:20;22.00;99.90
3156;DHT22;1588;50.892;7.082;2023-09-19T11:26:10;21.80;99.90
3156;DHT22;1588;50.892;7.082;2023-09-19T11:31:52;22.40;99.90
3156;DHT22;1588;50.892;7.082;2023-09-19T11:36:58;22.40;99.90
3156;DHT22;1588;50.892;7.082;2023-09-19T11:47:50;22.20;99.90
3156;DHT22;1588;50.892;7.082;2023-09-19T11:52:56;21.90;99.90
3156;DHT22;1588;50.892;7.082;2023-09-19T11:58:01;21.50;99.90
3156;DHT22;1588;50.892;7.082;2023-09-19T12:03:08;21.60;99.90
3156;DHT22;1588;50.892;7.082;2023-09-19T12:08:15;21.70;99.90
3156;DHT22;1588;50.892;7.082;2023-09-19T12:13:20;22.30;99.90
3156;DHT22;1588;50.892;7.082;2023-09-19T12:18:29;22.50;99.90
3156;DHT22;1588;50.892;7.082;2023-09-19T12:23:31;22.50;99.90
3156;DHT22;1588;50.892;7.082;2023-09-19T12:28:42;22.60;99.90
3156;DHT22;1588;50.892;7.082;2023-09-19T12:33:53;22.70;99.90
3156;DHT22;1588;50.892;7.082;2023-09-19T12:39:26;22.50;99.90
3156;DHT22;1588;50.892;7.082;2023-09-19T12:44:59;22.40;99.90
3156;DHT22;1588;50.892;7.082;2023-09-19T12:50:14;22.20;99.90
3156;DHT22;1588;50.892;7.082;2023-09-19T12:55:23;22.20;99.90
3156;DHT22;1588;50.892;7.082;2023-09-19T13:00:40;22.10;99.90
3156;DHT22;1588;50.892;7.082;2023-09-19T13:05:50;22.20;99.90
3156;DHT22;1588;50.892;7.082;2023-09-19T13:11:10;22.10;99.90
3156;DHT22;1588;50.892;7.082;2023-09-19T13:16:20;22.30;99.90
3156;DHT22;1588;50.892;7.082;2023-09-19T13:21:31;22.50;99.90
3156;DHT22;1588;50.892;7.082;2023-09-19T13:26:39;22.50;99.90
3156;DHT22;1588;50.892;7.082;2023-09-19T13:31:49;22.50;99.90
3156;DHT22;1588;50.892;7.082;2023-09-19T13:36:54;22.50;99.90
3156;DHT22;1588;50.892;7.082;2023-09-19T13:41:57;22.40;99.90
3156;DHT22;1588;50.892;7.082;2023-09-19T13:47:06;22.40;99.90
3156;DHT22;1588;50.892;7.082;2023-09-19T13:52:11;22.30;99.90
3156;DHT22;1588;50.892;7.082;2023-09-19T13:57:14;22.10;99.90
3156;DHT22;1588;50.892;7.082;2023-09-19T14:02:18;21.70;99.90
3156;DHT22;1588;50.892;7.082;2023-09-19T14:07:26;21.80;99.90
3156;DHT22;1588;50.892;7.082;2023-09-19T14:12:28;22.10;99.90
3156;DHT22;1588;50.892;7.082;2023-09-19T14:17:33;22.20;99.90
3156;DHT22;1588;50.892;7.082;2023-09-19T14:22:43;22.30;99.90
3156;DHT22;1588;50.892;7.082;2023-09-19T14:27:52;22.00;99.90
3156;DHT22;1588;50.892;7.082;2023-09-19T14:33:04;21.60;99.90
3156;DHT22;1588;50.892;7.082;2023-09-19T14:38:09;21.50;99.90
3156;DHT22;1588;50.892;7.082;2023-09-19T14:43:12;21.40;99.90
3156;DHT22;1588;50.892;7.082;2023-09-19T14:48:16;21.40;99.90
3156;DHT22;1588;50.892;7.082;2023-09-19T14:53:18;21.20;99.90
3156;DHT22;1588;50.892;7.082;2023-09-19T14:58:21;21.20;99.90
3156;DHT22;1588;50.892;7.082;2023-09-19T15:03:31;21.20;99.90
3156;DHT22;1588;50.892;7.082;2023-09-19T15:08:37;21.30;99.90
3156;DHT22;1588;50.892;7.082;2023-09-19T15:13:41;21.10;99.90
3156;DHT22;1588;50.892;7.082;2023-09-19T15:18:49;21.10;99.90
3156;DHT22;1588;50.892;7.082;2023-09-19T15:23:56;20.90;99.90
3156;DHT22;1588;50.892;7.082;2023-09-19T15:29:11;20.80;99.90
3156;DHT22;1588;50.892;7.082;2023-09-19T15:34:29;20.70;99.90
3156;DHT22;1588;50.892;7.082;2023-09-19T15:39:51;20.70;99.90
3156;DHT22;1588;50.892;7.082;2023-09-19T15:44:54;20.60;99.90
3156;DHT22;1588;50.892;7.082;2023-09-19T15:49:59;20.60;99.90
3156;DHT22;1588;50.892;7.082;2023-09-19T15:55:05;20.50;99.90
3156;DHT22;1588;50.892;7.082;2023-09-19T16:00:09;20.50;99.90
3156;DHT22;1588;50.892;7.082;2023-09-19T16:05:16;20.40;99.90
3156;DHT22;1588;50.892;7.082;2023-09-19T16:10:18;20.30;99.90
3156;DHT22;1588;50.892;7.082;2023-09-19T16:15:21;20.40;99.90
3156;DHT22;1588;50.892;7.082;2023-09-19T16:20:28;20.40;99.90
3156;DHT22;1588;50.892;7.082;2023-09-19T16:25:37;20.40;99.90
3156;DHT22;1588;50.892;7.082;2023-09-19T16:30:40;20.40;99.90
3156;DHT22;1588;50.892;7.082;2023-09-19T16:35:44;20.30;99.90
3156;DHT22;1588;50.892;7.082;2023-09-19T16:40:52;20.20;99.90
3156;DHT22;1588;50.892;7.082;2023-09-19T16:45:57;20.10;99.90
3156;DHT22;1588;50.892;7.082;2023-09-19T16:51:03;20.00;99.90
3156;DHT22;1588;50.892;7.082;2023-09-19T16:56:07;19.90;99.90
3156;DHT22;1588;50.892;7.082;2023-09-19T17:01:11;19.80;99.90
3156;DHT22;1588;50.892;7.082;2023-09-19T17:06:16;19.80;99.90
3156;DHT22;1588;50.892;7.082;2023-09-19T17:11:21;19.80;99.90
3156;DHT22;1588;50.892;7.082;2023-09-19T17:16:25;19.60;99.90
3156;DHT22;1588;50.892;7.082;2023-09-19T17:21:31;19.60;99.90
3156;DHT22;1588;50.892;7.082;2023-09-19T17:26:33;19.50;99.90
3156;DHT22;1588;50.892;7.082;2023-09-19T17:31:36;19.50;99.90
3156;DHT22;1588;50.892;7.082;2023-09-19T17:36:44;19.30;99.90
3156;DHT22;1588;50.892;7.082;2023-09-19T17:41:46;19.30;99.90
3156;DHT22;1588;50.892;7.082;2023-09-19T17:46:49;19.20;99.90
3156;DHT22;1588;50.892;7.082;2023-09-19T17:51:54;19.20;99.90
3156;DHT22;1588;50.892;7.082;2023-09-19T17:56:56;19.10;99.90
3156;DHT22;1588;50.892;7.082;2023-09-19T18:01:59;19.10;99.90
3156;DHT22;1588;50.892;7.082;2023-09-19T18:07:03;19.00;99.90
3156;DHT22;1588;50.892;7.082;2023-09-19T18:12:08;18.80;99.90
3156;DHT22;1588;50.892;7.082;2023-09-19T18:17:11;18.70;99.90
3156;DHT22;1588;50.892;7.082;2023-09-19T18:22:16;18.60;99.90
3156;DHT22;1588;50.892;7.082;2023-09-19T18:27:20;18.50;99.90
3156;DHT22;1588;50.892;7.082;2023-09-19T18:32:37;18.50;99.90
3156;DHT22;1588;50.892;7.082;2023-09-19T18:37:45;18.30;99.90
3156;DHT22;1588;50.892;7.082;2023-09-19T18:42:51;18.30;99.90
3156;DHT22;1588;50.892;7.082;2023-09-19T18:48:01;18.40;99.90
3156;DHT22;1588;50.892;7.082;2023-09-19T18:53:13;18.40;99.90
3156;DHT22;1588;50.892;7.082;2023-09-19T18:58:38;18.30;99.90
3156;DHT22;1588;50.892;7.082;2023-09-19T19:03:46;18.20;99.90
3156;DHT22;1588;50.892;7.082;2023-09-19T19:09:15;18.20;99.90
3156;DHT22;1588;50.892;7.082;2023-09-19T19:14:19;18.20;99.90
3156;DHT22;1588;50.892;7.082;2023-09-19T19:19:28;18.10;99.90
3156;DHT22;1588;50.892;7.082;2023-09-19T19:24:54;18.10;99.90
3156;DHT22;1588;50.892;7.082;2023-09-19T19:30:00;18.10;99.90
3156;DHT22;1588;50.892;7.082;2023-09-19T19:35:14;18.10;99.90
3156;DHT22;1588;50.892;7.082;2023-09-19T19:40:24;18.10;99.90
3156;DHT22;1588;50.892;7.082;2023-09-19T19:45:27;18.10;99.90
3156;DHT22;1588;50.892;7.082;2023-09-19T19:50:47;18.10;99.90
3156;DHT22;1588;50.892;7.082;2023-09-19T19:56:02;18.10;99.90
3156;DHT22;1588;50.892;7.082;2023-09-19T20:01:08;18.10;99.90
3156;DHT22;1588;50.892;7.082;2023-09-19T20:06:12;18.10;99.90
3156;DHT22;1588;50.892;7.082;2023-09-19T20:11:41;18.10;99.90
3156;DHT22;1588;50.892;7.082;2023-09-19T20:16:50;18.00;99.90
3156;DHT22;1588;50.892;7.082;2023-09-19T20:21:56;18.00;99.90
3156;DHT22;1588;50.892;7.082;2023-09-19T20:27:04;18.00;99.90
3156;DHT22;1588;50.892;7.082;2023-09-19T20:32:11;18.00;99.90
3156;DHT22;1588;50.892;7.082;2023-09-19T20:37:26;18.00;99.90
3156;DHT22;1588;50.892;7.082;2023-09-19T20:42:39;17.90;99.90
3156;DHT22;1588;50.892;7.082;2023-09-19T20:47:49;17.90;99.90
3156;DHT22;1588;50.892;7.082;2023-09-19T20:53:07;17.80;99.90
3156;DHT22;1588;50.892;7.082;2023-09-19T20:58:23;17.70;99.90
3156;DHT22;1588;50.892;7.082;2023-09-19T21:03:26;17.80;99.90
3156;DHT22;1588;50.892;7.082;2023-09-19T21:08:29;17.80;99.90
3156;DHT22;1588;50.892;7.082;2023-09-19T21:13:34;17.80;99.90
3156;DHT22;1588;50.892;7.082;2023-09-19T21:18:37;17.80;99.90
3156;DHT22;1588;50.892;7.082;2023-09-19T21:23:42;17.90;99.90
3156;DHT22;1588;50.892;7.082;2023-09-19T21:28:47;17.90;99.90
3156;DHT22;1588;50.892;7.082;2023-09-19T21:33:51;17.80;99.90
3156;DHT22;1588;50.892;7.082;2023-09-19T21:38:55;17.90;99.90
3156;DHT22;1588;50.892;7.082;2023-09-19T21:44:08;17.90;99.90
3156;DHT22;1588;50.892;7.082;2023-09-19T21:49:12;17.90;99.90
3156;DHT22;1588;50.892;7.082;2023-09-19T21:54:18;17.90;99.90
3156;DHT22;1588;50.892;7.082;2023-09-19T21:59:26;17.80;99.90
3156;DHT22;1588;50.892;7.082;2023-09-19T22:04:30;17.80;99.90
3156;DHT22;1588;50.892;7.082;2023-09-19T22:09:34;17.80;99.90
3156;DHT22;1588;50.892;7.082;2023-09-19T22:14:41;17.60;99.90
3156;DHT22;1588;50.892;7.082;2023-09-19T22:19:47;17.60;99.90
3156;DHT22;1588;50.892;7.082;2023-09-19T22:24:55;17.50;99.90
3156;DHT22;1588;50.892;7.082;2023-09-19T22:30:00;17.50;99.90
3156;DHT22;1588;50.892;7.082;2023-09-19T22:35:09;17.50;99.90
3156;DHT22;1588;50.892;7.082;2023-09-19T22:40:17;17.50;99.90
3156;DHT22;1588;50.892;7.082;2023-09-19T22:45:33;17.50;99.90
3156;DHT22;1588;50.892;7.082;2023-09-19T22:50:44;17.40;99.90
3156;DHT22;1588;50.892;7.082;2023-09-19T22:55:47;17.30;99.90
3156;DHT22;1588;50.892;7.082;2023-09-19T23:00:51;17.20;99.90
3156;DHT22;1588;50.892;7.082;2023-09-19T23:05:59;17.10;99.90
3156;DHT22;1588;50.892;7.082;2023-09-19T23:11:02;17.00;99.90
3156;DHT22;1588;50.892;7.082;2023-09-19T23:16:06;16.90;99.90
3156;DHT22;1588;50.892;7.082;2023-09-19T23:21:09;16.90;99.90
3156;DHT22;1588;50.892;7.082;2023-09-19T23:26:17;16.90;99.90
3156;DHT22;1588;50.892;7.082;2023-09-19T23:31:22;16.70;99.90
3156;DHT22;1588;50.892;7.082;2023-09-19T23:36:24;16.70;99.90
3156;DHT22;1588;50.892;7.082;2023-09-19T23:41:27;16.70;99.90
3156;DHT22;1588;50.892;7.082;2023-09-19T23:46:33;16.70;99.90
3156;DHT22;1588;50.892;7.082;2023-09-19T23:51:35;16.50;99.90
3156;DHT22;1588;50.892;7.082;2023-09-19T23:56:41;16.50;99.90
